createdAt,value
2023-03-12T00:02:04.198Z,19.40
2023-03-12T00:04:41.832Z,13.90
2023-03-12T00:07:16.846Z,15.30
2023-03-12T00:09:46.916Z,12.60
2023-03-12T00:12:15.961Z,12.40
2023-03-12T00:14:45.459Z,13.70
2023-03-12T00:17:14.380Z,16.60
2023-03-12T00:19:45.759Z,14.80
2023-03-12T00:22:22.773Z,15.90
2023-03-12T00:24:57.280Z,14.20
2023-03-12T00:27:26.791Z,14.50
2023-03-12T00:29:57.986Z,11.80
2023-03-12T00:32:32.384Z,13.80
2023-03-12T00:35:02.657Z,16.50
2023-03-12T00:37:35.338Z,11.80
2023-03-12T00:40:06.200Z,14.80
2023-03-12T00:42:41.349Z,12.70
2023-03-12T00:45:13.436Z,15.60
2023-03-12T00:47:44.912Z,13.30
2023-03-12T00:50:16.171Z,15.70
2023-03-12T00:52:45.730Z,17.30
2023-03-12T00:55:19.882Z,13.10
2023-03-12T00:57:49.299Z,15.50
2023-03-12T01:00:25.447Z,10.20
2023-03-12T01:02:59.387Z,10.60
2023-03-12T01:05:32.944Z,13.60
2023-03-12T01:08:05.435Z,14.00
2023-03-12T01:10:36.140Z,13.90
2023-03-12T01:13:05.423Z,19.50
2023-03-12T01:15:37.299Z,18.10
2023-03-12T01:18:06.182Z,13.70
2023-03-12T01:20:35.354Z,16.80
2023-03-12T01:23:08.102Z,17.90
2023-03-12T01:25:37.714Z,17.90
2023-03-12T01:28:09.481Z,14.40
2023-03-12T01:30:53.047Z,16.00
2023-03-12T01:33:25.220Z,14.60
2023-03-12T01:35:54.169Z,15.30
2023-03-12T01:38:25.852Z,14.40
2023-03-12T01:40:54.953Z,13.10
2023-03-12T01:43:46.069Z,16.60
2023-03-12T01:46:38.075Z,12.60
2023-03-12T01:49:29.134Z,12.60
2023-03-12T01:52:11.213Z,16.20
2023-03-12T01:54:56.032Z,11.00
2023-03-12T01:57:43.616Z,13.10
2023-03-12T02:00:23.675Z,12.80
2023-03-12T02:03:05.118Z,10.90
2023-03-12T02:05:47.286Z,15.80
2023-03-12T02:08:20.637Z,12.50
2023-03-12T02:10:49.500Z,15.30
2023-03-12T02:13:18.834Z,15.40
2023-03-12T02:15:49.110Z,10.80
2023-03-12T02:18:22.505Z,12.20
2023-03-12T02:21:26.084Z,9.80
2023-03-12T02:24:29.341Z,11.60
2023-03-12T02:27:04.254Z,12.70
2023-03-12T02:29:36.025Z,11.70
2023-03-12T02:32:10.471Z,11.70
2023-03-12T02:34:44.586Z,13.40
2023-03-12T02:37:24.541Z,7.40
2023-03-12T02:40:16.060Z,9.60
2023-03-12T02:42:49.484Z,8.00
2023-03-12T02:45:36.016Z,10.30
2023-03-12T02:48:09.382Z,10.50
2023-03-12T02:50:45.474Z,9.90
2023-03-12T02:53:17.089Z,9.70
2023-03-12T02:55:45.923Z,9.70
2023-03-12T02:58:17.571Z,10.40
2023-03-12T03:00:46.598Z,10.40
2023-03-12T03:03:20.091Z,12.20
2023-03-12T03:05:51.834Z,14.00
2023-03-12T03:08:23.132Z,7.60
2023-03-12T03:10:55.132Z,8.60
2023-03-12T03:13:31.387Z,8.80
2023-03-12T03:16:06.038Z,11.80
2023-03-12T03:18:35.528Z,12.90
2023-03-12T03:21:10.834Z,12.80
2023-03-12T03:23:43.023Z,10.70
2023-03-12T03:26:14.880Z,10.10
2023-03-12T03:28:46.529Z,8.60
2023-03-12T03:33:47.951Z,11.40
2023-03-12T03:36:18.585Z,9.90
2023-03-12T03:39:05.146Z,11.90
2023-03-12T03:41:34.967Z,7.70
2023-03-12T03:44:07.585Z,9.30
2023-03-12T03:46:38.176Z,8.60
2023-03-12T03:49:14.082Z,7.90
2023-03-12T03:51:52.335Z,12.40
2023-03-12T03:54:31.963Z,11.90
2023-03-12T03:57:12.585Z,10.90
2023-03-12T03:59:44.943Z,9.10
2023-03-12T04:02:20.373Z,8.60
2023-03-12T04:05:01.794Z,10.40
2023-03-12T04:07:38.396Z,8.80
2023-03-12T04:10:11.861Z,11.80
2023-03-12T04:12:40.868Z,12.00
2023-03-12T04:15:12.599Z,12.60
2023-03-12T04:17:48.812Z,11.60
2023-03-12T04:20:18.110Z,14.80
2023-03-12T04:22:48.816Z,9.80
2023-03-12T04:25:19.734Z,9.00
2023-03-12T04:28:02.160Z,9.70
2023-03-12T04:30:38.197Z,9.00
2023-03-12T04:33:14.860Z,12.50
2023-03-12T04:35:57.394Z,7.30
2023-03-12T04:41:11.873Z,10.50
2023-03-12T04:43:46.306Z,15.00
2023-03-12T04:46:15.576Z,9.40
2023-03-12T04:48:47.624Z,8.40
2023-03-12T04:51:18.186Z,9.20
2023-03-12T04:53:49.576Z,11.10
2023-03-12T04:56:19.087Z,16.20
2023-03-12T04:58:52.945Z,12.90
2023-03-12T05:01:29.025Z,12.90
2023-03-12T05:03:58.154Z,12.40
2023-03-12T05:06:29.349Z,11.40
2023-03-12T05:09:01.675Z,10.70
2023-03-12T05:11:39.908Z,8.40
2023-03-12T05:14:12.469Z,8.20
2023-03-12T05:19:11.624Z,8.90
2023-03-12T05:21:44.504Z,7.30
2023-03-12T05:24:19.020Z,14.50
2023-03-12T05:26:48.231Z,10.70
2023-03-12T05:29:25.518Z,9.80
2023-03-12T05:32:04.757Z,12.20
2023-03-12T05:34:37.468Z,13.80
2023-03-12T05:37:07.370Z,12.20
2023-03-12T05:39:46.532Z,10.20
2023-03-12T05:42:26.852Z,9.40
2023-03-12T05:47:31.100Z,18.40
2023-03-12T05:50:07.874Z,11.50
2023-03-12T05:52:57.010Z,7.70
2023-03-12T05:55:37.515Z,8.90
2023-03-12T05:58:08.009Z,7.20
2023-03-12T06:00:38.637Z,12.70
2023-03-12T06:03:23.563Z,21.20
2023-03-12T06:06:21.113Z,8.70
2023-03-12T06:09:10.747Z,8.90
2023-03-12T06:12:04.277Z,27.10
2023-03-12T06:15:01.224Z,14.60
2023-03-12T06:17:35.527Z,15.00
2023-03-12T06:20:16.515Z,12.60
2023-03-12T06:22:47.381Z,9.30
2023-03-12T06:25:25.429Z,9.60
2023-03-12T06:28:03.899Z,7.20
2023-03-12T06:30:52.214Z,8.30
2023-03-12T06:33:24.835Z,9.40
2023-03-12T06:36:09.725Z,8.80
2023-03-12T06:38:49.550Z,10.20
2023-03-12T06:41:23.881Z,9.30
2023-03-12T06:44:00.296Z,7.40
2023-03-12T06:46:33.705Z,9.30
2023-03-12T06:49:12.490Z,7.80
2023-03-12T06:52:00.073Z,8.00
2023-03-12T06:54:35.575Z,8.00
2023-03-12T06:57:23.592Z,9.50
2023-03-12T07:00:03.467Z,11.90
2023-03-12T07:02:36.313Z,6.50
2023-03-12T07:05:09.424Z,10.40
2023-03-12T07:07:44.252Z,10.70
2023-03-12T07:10:15.874Z,10.60
2023-03-12T07:12:45.718Z,8.70
2023-03-12T07:15:14.503Z,8.80
2023-03-12T07:17:42.901Z,7.90
2023-03-12T07:20:39.112Z,8.40
2023-03-12T07:23:38.407Z,8.60
2023-03-12T07:26:16.373Z,6.40
2023-03-12T07:28:50.895Z,13.80
2023-03-12T07:31:29.748Z,6.50
2023-03-12T07:34:05.930Z,7.60
2023-03-12T07:36:42.619Z,7.70
2023-03-12T07:39:14.563Z,6.40
2023-03-12T07:41:45.098Z,7.70
2023-03-12T07:44:14.435Z,7.50
2023-03-12T07:46:43.782Z,9.90
2023-03-12T07:49:17.808Z,11.20
2023-03-12T07:51:50.223Z,12.20
2023-03-12T07:54:19.551Z,6.20
2023-03-12T07:56:56.518Z,5.90
2023-03-12T07:59:26.563Z,7.10
2023-03-12T08:01:55.206Z,7.60
2023-03-12T08:04:25.622Z,8.70
2023-03-12T08:06:54.879Z,5.70
2023-03-12T08:09:29.453Z,10.10
2023-03-12T08:12:01.664Z,6.90
2023-03-12T08:14:46.767Z,6.80
2023-03-12T08:17:26.851Z,6.80
2023-03-12T08:20:11.525Z,8.20
2023-03-12T08:22:55.709Z,8.00
2023-03-12T08:25:28.604Z,6.80
2023-03-12T08:28:02.016Z,6.80
2023-03-12T08:30:38.029Z,8.40
2023-03-12T08:33:14.378Z,12.80
2023-03-12T08:35:51.384Z,5.70
2023-03-12T08:38:22.278Z,5.90
2023-03-12T08:41:05.215Z,5.10
2023-03-12T08:43:37.367Z,6.50
2023-03-12T08:46:06.523Z,6.30
2023-03-12T08:48:41.128Z,11.30
2023-03-12T08:51:19.227Z,8.40
2023-03-12T08:53:54.928Z,8.60
2023-03-12T08:56:23.706Z,14.70
2023-03-12T08:59:06.917Z,11.00
2023-03-12T09:01:43.717Z,9.40
2023-03-12T09:04:17.693Z,9.70
2023-03-12T09:06:59.362Z,11.20
2023-03-12T09:12:19.327Z,10.40
2023-03-12T09:15:03.399Z,8.20
2023-03-12T09:17:37.537Z,7.60
2023-03-12T09:20:14.252Z,10.30
2023-03-12T09:22:53.075Z,7.20
2023-03-12T09:25:23.186Z,7.80
2023-03-12T09:28:03.960Z,7.70
2023-03-12T09:30:36.312Z,7.50
2023-03-12T09:33:07.346Z,10.10
2023-03-12T09:35:37.372Z,7.40
2023-03-12T09:38:15.150Z,10.30
2023-03-12T09:40:50.440Z,5.30
2023-03-12T09:48:39.710Z,8.10
2023-03-12T09:51:25.283Z,5.80
2023-03-12T09:54:03.440Z,5.60
2023-03-12T09:57:08.834Z,9.40
2023-03-12T09:59:42.763Z,7.80
2023-03-12T10:02:57.739Z,7.00
2023-03-12T10:06:07.071Z,5.10
2023-03-12T10:09:07.894Z,9.10
2023-03-12T10:12:36.435Z,7.90
2023-03-12T10:15:41.118Z,8.00
2023-03-12T10:18:54.106Z,5.90
2023-03-12T10:21:54.780Z,9.60
2023-03-12T10:24:57.196Z,5.40
2023-03-12T10:27:40.335Z,6.00
2023-03-12T10:30:28.303Z,4.90
2023-03-12T10:33:10.366Z,8.30
2023-03-12T10:35:54.490Z,8.40
2023-03-12T10:38:36.199Z,8.00
2023-03-12T10:41:44.136Z,11.60
2023-03-12T10:44:43.759Z,6.60
2023-03-12T10:47:44.397Z,7.60
2023-03-12T10:50:23.621Z,8.60
2023-03-12T10:53:19.180Z,6.00
2023-03-12T10:56:47.406Z,5.00
2023-03-12T10:59:28.946Z,5.90
2023-03-12T11:02:40.237Z,5.30
2023-03-12T11:05:55.173Z,9.30
2023-03-12T11:08:38.279Z,5.80
2023-03-12T11:11:37.586Z,8.10
2023-03-12T11:14:18.863Z,7.50
2023-03-12T11:17:00.938Z,19.10
2023-03-12T11:19:37.502Z,5.00
2023-03-12T11:22:37.386Z,8.20
2023-03-12T11:25:42.669Z,13.40
2023-03-12T11:28:40.906Z,7.90
2023-03-12T11:31:47.488Z,9.50
2023-03-12T11:34:41.962Z,7.10
2023-03-12T11:38:19.699Z,9.90
2023-03-12T11:40:58.437Z,8.90
2023-03-12T11:43:43.886Z,6.90
2023-03-12T11:47:07.578Z,5.60
2023-03-12T11:50:13.223Z,7.30
2023-03-12T11:53:12.832Z,7.60
2023-03-12T11:56:07.381Z,6.80
2023-03-12T11:59:03.088Z,5.50
2023-03-12T12:02:08.898Z,7.40
2023-03-12T12:05:17.395Z,7.40
2023-03-12T12:08:16.931Z,7.50
2023-03-12T12:11:35.426Z,7.50
2023-03-12T12:14:59.511Z,12.00
2023-03-12T12:18:10.792Z,7.50
2023-03-12T12:21:20.070Z,11.30
2023-03-12T12:24:18.122Z,9.30
2023-03-12T12:27:29.300Z,31.00
2023-03-12T12:30:51.922Z,11.90
2023-03-12T12:34:04.669Z,15.40
2023-03-12T12:36:50.125Z,10.60
2023-03-12T12:39:43.113Z,13.50
2023-03-12T12:42:33.879Z,19.50
2023-03-12T12:45:15.419Z,10.20
2023-03-12T12:48:17.130Z,12.90
2023-03-12T12:51:08.703Z,8.70
2023-03-12T12:54:06.223Z,5.10
2023-03-12T12:57:04.669Z,13.80
2023-03-12T13:00:21.439Z,7.10
2023-03-12T13:03:08.354Z,5.80
2023-03-12T13:06:06.050Z,15.10
2023-03-12T13:09:27.711Z,9.10
2023-03-12T13:12:11.452Z,10.90
2023-03-12T13:14:52.895Z,10.00
2023-03-12T13:18:16.827Z,10.70
2023-03-12T13:21:12.056Z,20.60
2023-03-12T13:24:08.212Z,12.90
2023-03-12T13:26:59.253Z,10.20
2023-03-12T13:29:41.435Z,8.00
2023-03-12T13:32:40.473Z,9.00
2023-03-12T13:35:45.414Z,7.80
2023-03-12T13:39:01.423Z,9.10
2023-03-12T13:42:03.852Z,16.80
2023-03-12T13:44:53.562Z,12.10
2023-03-12T13:47:47.196Z,7.90
2023-03-12T13:50:26.431Z,16.00
2023-03-12T13:53:19.160Z,11.20
2023-03-12T13:56:24.138Z,11.90
2023-03-12T13:59:29.138Z,7.80
2023-03-12T14:06:13.648Z,13.60
2023-03-12T14:09:30.813Z,14.40
2023-03-12T14:12:40.642Z,9.70
2023-03-12T14:15:12.907Z,11.70
2023-03-12T14:17:59.278Z,15.30
2023-03-12T14:20:34.372Z,15.10
2023-03-12T14:23:28.318Z,12.70
2023-03-12T14:26:04.404Z,14.90
2023-03-12T14:28:44.320Z,10.00
2023-03-12T14:34:32.051Z,9.90
2023-03-12T14:37:31.127Z,9.30
2023-03-12T14:40:51.810Z,11.20
2023-03-12T14:43:36.184Z,11.00
2023-03-12T14:46:26.004Z,6.60
2023-03-12T14:49:23.988Z,9.40
2023-03-12T14:52:06.355Z,11.50
2023-03-12T14:54:43.465Z,10.30
2023-03-12T14:57:27.117Z,12.40
2023-03-12T15:00:13.996Z,9.20
2023-03-12T15:02:56.851Z,15.10
2023-03-12T15:05:37.853Z,7.30
2023-03-12T15:08:22.288Z,9.70
2023-03-12T15:11:01.440Z,10.50
2023-03-12T15:13:43.110Z,9.90
2023-03-12T15:16:30.248Z,15.90
2023-03-12T15:19:23.299Z,18.90
2023-03-12T15:22:01.849Z,11.60
2023-03-12T15:24:48.626Z,13.40
2023-03-12T15:27:43.804Z,12.50
2023-03-12T15:30:41.674Z,17.20
2023-03-12T15:33:18.626Z,17.40
2023-03-12T15:36:18.109Z,37.60
2023-03-12T15:43:14.403Z,25.00
2023-03-12T15:46:29.414Z,23.80
2023-03-12T15:49:36.962Z,18.30
2023-03-12T15:52:38.560Z,20.20
2023-03-12T15:55:31.168Z,21.50
2023-03-12T15:58:38.961Z,28.80
2023-03-12T16:01:36.190Z,24.70
2023-03-12T16:04:27.267Z,28.60
2023-03-12T16:07:14.653Z,31.00
2023-03-12T16:09:55.582Z,29.30
2023-03-12T16:12:28.821Z,24.80
2023-03-12T16:15:03.281Z,35.20
2023-03-12T16:17:49.785Z,86.30
2023-03-12T16:20:35.532Z,128.80
2023-03-12T16:23:14.581Z,59.40
2023-03-12T16:26:00.770Z,27.50
2023-03-12T16:28:45.264Z,28.10
2023-03-12T16:31:26.434Z,27.20
2023-03-12T16:34:16.696Z,26.00
2023-03-12T16:37:03.216Z,23.90
2023-03-12T16:39:52.598Z,23.40
2023-03-12T16:46:00.945Z,34.00
2023-03-12T16:48:47.013Z,42.00
2023-03-12T16:51:32.863Z,33.90
2023-03-12T16:54:14.235Z,23.10
2023-03-12T16:56:57.037Z,24.70
2023-03-12T16:59:34.619Z,51.20
2023-03-12T17:02:24.828Z,44.50
2023-03-12T17:05:16.860Z,44.50
2023-03-12T17:08:11.739Z,69.20
2023-03-12T17:10:45.508Z,55.60
2023-03-12T17:13:33.008Z,50.00
2023-03-12T17:16:10.431Z,67.90
2023-03-12T17:18:47.042Z,49.90
2023-03-12T17:21:27.394Z,86.50
2023-03-12T17:24:08.839Z,67.60
2023-03-12T17:26:43.639Z,101.70
2023-03-12T17:29:12.596Z,110.10
2023-03-12T17:31:41.676Z,75.10
2023-03-12T17:34:22.074Z,98.50
2023-03-12T17:36:57.717Z,90.70
2023-03-12T17:39:52.221Z,74.50
2023-03-12T17:42:34.550Z,68.50
2023-03-12T17:45:10.854Z,69.40
2023-03-12T17:47:52.477Z,81.50
2023-03-12T17:50:21.818Z,70.00
2023-03-12T17:53:02.330Z,72.00
2023-03-12T17:55:31.290Z,95.40
2023-03-12T17:58:02.306Z,160.70
2023-03-12T18:00:35.052Z,157.80
2023-03-12T18:03:08.386Z,77.80
2023-03-12T18:05:43.928Z,67.30
2023-03-12T18:08:19.215Z,54.90
2023-03-12T18:11:10.098Z,71.70
2023-03-12T18:13:44.398Z,82.50
2023-03-12T18:16:18.577Z,88.50
2023-03-12T18:18:53.406Z,88.10
2023-03-12T18:21:35.905Z,82.00
2023-03-12T18:24:25.867Z,79.60
2023-03-12T18:27:06.698Z,86.10
2023-03-12T18:29:41.071Z,88.60
2023-03-12T18:32:24.152Z,73.00
2023-03-12T18:35:06.035Z,83.70
2023-03-12T18:37:51.765Z,78.00
2023-03-12T18:40:32.438Z,75.20
2023-03-12T18:43:04.497Z,71.00
2023-03-12T18:45:45.551Z,66.30
2023-03-12T18:48:21.786Z,63.30
2023-03-12T18:51:13.764Z,58.70
2023-03-12T18:54:04.670Z,52.70
2023-03-12T18:56:43.050Z,59.60
2023-03-12T18:59:21.494Z,52.90
2023-03-12T19:02:14.098Z,49.90
2023-03-12T19:04:48.560Z,46.00
2023-03-12T19:07:21.968Z,54.60
2023-03-12T19:10:40.497Z,54.30
2023-03-12T19:13:27.379Z,62.30
2023-03-12T19:16:10.344Z,64.70
2023-03-12T19:18:59.162Z,51.40
2023-03-12T19:21:32.806Z,52.20
2023-03-12T19:24:07.413Z,45.40
2023-03-12T19:26:57.027Z,40.30
2023-03-12T19:29:36.633Z,53.20
2023-03-12T19:32:11.895Z,43.90
2023-03-12T19:34:50.082Z,46.00
2023-03-12T19:37:34.647Z,43.80
2023-03-12T19:40:09.118Z,45.20
2023-03-12T19:42:44.846Z,50.80
2023-03-12T19:45:20.361Z,52.30
2023-03-12T19:47:55.051Z,49.20
2023-03-12T19:50:30.016Z,50.60
2023-03-12T19:53:25.879Z,41.80
2023-03-12T19:56:00.820Z,42.50
2023-03-12T20:01:10.147Z,54.00
2023-03-12T20:03:45.630Z,46.60
2023-03-12T20:06:20.540Z,42.50
2023-03-12T20:08:50.684Z,38.70
2023-03-12T20:11:28.609Z,34.10
2023-03-12T20:14:09.658Z,32.40
2023-03-12T20:16:43.325Z,25.60
2023-03-12T20:19:18.803Z,19.60
2023-03-12T20:21:52.899Z,19.30
2023-03-12T20:24:24.108Z,14.70
2023-03-12T20:26:58.305Z,12.20
2023-03-12T20:29:37.770Z,14.10
2023-03-12T20:32:08.774Z,11.80
2023-03-12T20:34:37.476Z,11.10
2023-03-12T20:37:11.877Z,12.30
2023-03-12T20:39:44.149Z,28.70
2023-03-12T20:42:15.311Z,14.50
2023-03-12T20:44:45.082Z,13.80
2023-03-12T20:47:23.985Z,13.50
2023-03-12T20:50:04.732Z,14.30
2023-03-12T20:52:43.539Z,11.30
2023-03-12T20:55:24.952Z,13.00
2023-03-12T20:58:02.087Z,16.40
2023-03-12T21:00:34.653Z,17.60
2023-03-12T21:03:19.387Z,17.60
2023-03-12T21:06:02.972Z,17.20
2023-03-12T21:08:37.195Z,19.40
2023-03-12T21:11:11.964Z,19.20
2023-03-12T21:13:47.450Z,16.50
2023-03-12T21:16:16.450Z,12.90
2023-03-12T21:18:54.792Z,14.40
2023-03-12T21:21:33.185Z,12.00
2023-03-12T21:24:09.841Z,16.70
2023-03-12T21:26:39.846Z,30.10
2023-03-12T21:29:08.732Z,24.60
2023-03-12T21:31:44.059Z,19.30
2023-03-12T21:34:25.135Z,16.10
2023-03-12T21:40:09.452Z,14.50
2023-03-12T21:42:58.485Z,12.90
2023-03-12T21:45:41.739Z,17.70
2023-03-12T21:48:22.627Z,21.60
2023-03-12T21:51:06.650Z,27.20
2023-03-12T21:53:46.174Z,36.70
2023-03-12T21:56:24.188Z,46.90
2023-03-12T21:58:57.527Z,52.40
2023-03-12T22:02:31.936Z,61.40
2023-03-12T22:05:21.800Z,64.80
2023-03-12T22:08:25.519Z,44.10
2023-03-12T22:11:12.995Z,36.30
2023-03-12T22:13:59.923Z,35.00
2023-03-12T22:16:33.505Z,28.50
2023-03-12T22:19:28.165Z,25.40
2023-03-12T22:22:22.147Z,26.60
2023-03-12T22:25:06.318Z,28.00
2023-03-12T22:31:43.182Z,18.60
2023-03-12T22:34:18.151Z,15.90
2023-03-12T22:36:53.169Z,18.00
2023-03-12T22:39:24.689Z,15.00
2023-03-12T22:42:01.937Z,16.40
2023-03-12T22:44:46.912Z,17.00
2023-03-12T22:47:33.262Z,14.40
2023-03-12T22:50:05.458Z,18.50
2023-03-12T22:52:39.649Z,17.60
2023-03-12T22:55:28.950Z,15.90
2023-03-12T22:58:16.286Z,15.00
2023-03-12T23:01:02.574Z,18.80
2023-03-12T23:03:48.188Z,16.20
2023-03-12T23:06:32.858Z,16.60
2023-03-12T23:11:42.921Z,19.00
2023-03-12T23:14:16.834Z,16.10
2023-03-12T23:16:50.904Z,16.30
2023-03-12T23:19:19.827Z,13.80
2023-03-12T23:22:12.533Z,15.80
2023-03-12T23:24:42.691Z,10.80
2023-03-12T23:27:12.005Z,14.90
2023-03-12T23:29:40.522Z,12.30
2023-03-12T23:32:10.364Z,12.90
2023-03-12T23:34:44.838Z,15.80
2023-03-12T23:37:22.626Z,15.90
2023-03-12T23:39:55.307Z,17.40
2023-03-12T23:42:31.516Z,18.00
2023-03-12T23:45:00.308Z,24.00
2023-03-12T23:47:31.266Z,24.20
2023-03-12T23:50:06.206Z,25.70
2023-03-12T23:52:34.730Z,28.90
2023-03-12T23:55:07.156Z,22.30
2023-03-12T23:57:41.409Z,22.30
